createdAt,value
2023-02-17T00:01:14.203Z,8.90
2023-02-17T00:03:42.628Z,11.07
2023-02-17T00:06:13.290Z,9.10
2023-02-17T00:08:41.650Z,10.77
2023-02-17T00:11:09.941Z,9.70
2023-02-17T00:13:38.398Z,11.70
2023-02-17T00:16:10.475Z,9.27
2023-02-17T00:18:38.777Z,9.80
2023-02-17T00:21:17.836Z,9.45
2023-02-17T00:23:47.382Z,8.95
2023-02-17T00:26:16.326Z,7.18
2023-02-17T00:28:45.173Z,9.13
2023-02-17T00:31:16.351Z,11.93
2023-02-17T00:33:44.688Z,9.80
2023-02-17T00:36:17.845Z,8.88
2023-02-17T00:38:47.081Z,8.85
2023-02-17T00:41:15.279Z,9.02
2023-02-17T00:43:43.524Z,13.30
2023-02-17T00:46:11.848Z,8.50
2023-02-17T00:48:40.304Z,7.88
2023-02-17T00:51:08.907Z,8.07
2023-02-17T00:53:38.670Z,8.98
2023-02-17T00:56:07.762Z,8.18
2023-02-17T00:58:36.984Z,9.07
2023-02-17T01:01:07.700Z,8.35
2023-02-17T01:03:35.955Z,7.18
2023-02-17T01:06:08.195Z,9.98
2023-02-17T01:08:36.513Z,8.20
2023-02-17T01:11:06.272Z,8.95
2023-02-17T01:13:34.481Z,9.75
2023-02-17T01:16:03.361Z,7.78
2023-02-17T01:18:32.065Z,7.25
2023-02-17T01:21:00.469Z,5.80
2023-02-17T01:23:28.706Z,7.90
2023-02-17T01:25:57.000Z,7.32
2023-02-17T01:28:26.590Z,9.48
2023-02-17T01:30:54.825Z,5.30
2023-02-17T01:33:23.072Z,7.63
2023-02-17T01:35:51.306Z,8.05
2023-02-17T01:38:19.444Z,13.13
2023-02-17T01:40:48.836Z,7.18
2023-02-17T01:43:18.880Z,8.27
2023-02-17T01:45:52.862Z,5.40
2023-02-17T01:48:24.503Z,6.90
2023-02-17T01:50:56.249Z,6.78
2023-02-17T01:53:28.977Z,6.00
2023-02-17T01:55:57.999Z,11.88
2023-02-17T01:58:28.258Z,7.93
2023-02-17T02:01:00.633Z,5.80
2023-02-17T02:03:31.770Z,5.82
2023-02-17T02:06:01.793Z,6.97
2023-02-17T02:08:35.947Z,7.97
2023-02-17T02:11:04.192Z,7.70
2023-02-17T02:13:32.748Z,7.63
2023-02-17T02:24:04.692Z,5.82
2023-02-17T02:27:12.568Z,4.70
2023-02-17T02:32:49.771Z,6.60
2023-02-17T02:35:25.027Z,6.03
2023-02-17T02:37:59.695Z,7.40
2023-02-17T02:40:32.448Z,8.27
2023-02-17T02:43:04.457Z,5.30
2023-02-17T02:45:32.945Z,7.63
2023-02-17T02:48:02.937Z,6.22
2023-02-17T02:50:45.313Z,8.43
2023-02-17T02:53:50.356Z,6.20
2023-02-17T02:56:28.722Z,7.78
2023-02-17T02:59:07.753Z,8.15
2023-02-17T03:01:46.001Z,8.73
2023-02-17T03:04:20.907Z,7.22
2023-02-17T03:06:54.269Z,6.70
2023-02-17T03:09:25.129Z,8.52
2023-02-17T03:11:55.007Z,10.23
2023-02-17T03:14:24.113Z,11.25
2023-02-17T03:16:53.568Z,13.95
2023-02-17T03:19:26.847Z,17.58
2023-02-17T03:21:59.632Z,13.73
2023-02-17T03:24:28.606Z,18.65
2023-02-17T03:26:56.919Z,13.10
2023-02-17T03:29:25.447Z,19.02
2023-02-17T03:31:54.144Z,10.85
2023-02-17T03:34:23.909Z,10.40
2023-02-17T03:36:52.270Z,13.52
2023-02-17T03:39:20.654Z,13.70
2023-02-17T03:41:51.616Z,19.45
2023-02-17T03:44:20.510Z,18.27
2023-02-17T03:46:48.922Z,13.82
2023-02-17T03:49:17.310Z,14.32
2023-02-17T03:51:47.215Z,15.35
2023-02-17T03:54:15.510Z,20.33
2023-02-17T03:56:43.982Z,12.88
2023-02-17T03:59:12.432Z,13.02
2023-02-17T04:01:40.811Z,12.25
2023-02-17T04:04:09.367Z,13.40
2023-02-17T04:06:38.140Z,11.82
2023-02-17T04:09:07.992Z,11.73
2023-02-17T04:11:36.472Z,12.95
2023-02-17T04:14:05.608Z,16.05
2023-02-17T04:16:34.272Z,14.68
2023-02-17T04:19:03.295Z,15.05
2023-02-17T04:21:31.797Z,17.08
2023-02-17T04:24:02.203Z,14.82
2023-02-17T04:26:32.451Z,17.60
2023-02-17T04:29:00.871Z,13.90
2023-02-17T04:31:29.381Z,15.02
2023-02-17T04:33:57.915Z,15.98
2023-02-17T04:36:26.537Z,15.73
2023-02-17T04:38:55.169Z,14.85
2023-02-17T04:41:23.595Z,16.80
2023-02-17T04:43:53.300Z,16.60
2023-02-17T04:46:21.721Z,14.07
2023-02-17T04:48:49.989Z,12.52
2023-02-17T04:51:18.213Z,11.95
2023-02-17T04:53:46.568Z,14.27
2023-02-17T04:56:15.026Z,12.02
2023-02-17T04:58:43.397Z,13.75
2023-02-17T05:01:13.574Z,12.60
2023-02-17T05:03:42.178Z,13.35
2023-02-17T05:06:10.827Z,15.85
2023-02-17T05:08:39.155Z,13.73
2023-02-17T05:11:07.556Z,11.88
2023-02-17T05:13:35.974Z,15.07
2023-02-17T05:16:05.373Z,15.57
2023-02-17T05:18:35.305Z,13.73
2023-02-17T05:21:03.906Z,16.42
2023-02-17T05:23:32.381Z,13.32
2023-02-17T05:26:00.702Z,13.00
2023-02-17T05:28:28.987Z,10.25
2023-02-17T05:30:57.302Z,12.90
2023-02-17T05:33:25.758Z,12.38
2023-02-17T05:35:55.561Z,15.88
2023-02-17T05:38:24.300Z,13.40
2023-02-17T05:40:53.842Z,12.85
2023-02-17T05:43:22.272Z,13.45
2023-02-17T05:45:50.760Z,11.55
2023-02-17T05:48:19.468Z,13.95
2023-02-17T05:50:48.269Z,14.10
2023-02-17T05:53:18.074Z,13.82
2023-02-17T05:55:48.573Z,14.05
2023-02-17T05:58:18.652Z,15.25
2023-02-17T06:00:48.003Z,14.88
2023-02-17T06:03:18.209Z,17.13
2023-02-17T06:05:47.493Z,11.02
2023-02-17T06:08:18.951Z,17.58
2023-02-17T06:10:49.986Z,13.50
2023-02-17T06:13:19.463Z,10.20
2023-02-17T06:15:49.622Z,12.02
2023-02-17T06:18:20.242Z,12.73
2023-02-17T06:20:52.240Z,13.85
2023-02-17T06:23:26.991Z,13.75
2023-02-17T06:28:28.678Z,13.70
2023-02-17T06:31:04.416Z,12.40
2023-02-17T06:33:36.277Z,12.20
2023-02-17T06:36:07.085Z,8.77
2023-02-17T06:38:44.970Z,7.78
2023-02-17T06:41:26.034Z,13.27
2023-02-17T06:44:03.741Z,12.48
2023-02-17T06:46:46.487Z,12.38
2023-02-17T06:49:20.879Z,13.93
2023-02-17T06:51:53.571Z,8.35
2023-02-17T06:54:26.688Z,13.30
2023-02-17T06:56:56.166Z,13.13
2023-02-17T06:59:26.105Z,13.40
2023-02-17T07:01:56.207Z,15.80
2023-02-17T07:04:28.213Z,15.63
2023-02-17T07:06:58.922Z,15.32
2023-02-17T07:09:32.975Z,12.52
2023-02-17T07:12:02.757Z,15.45
2023-02-17T07:14:33.912Z,12.52
2023-02-17T07:17:03.607Z,10.88
2023-02-17T07:19:32.962Z,12.55
2023-02-17T07:22:02.832Z,15.88
2023-02-17T07:24:35.195Z,16.15
2023-02-17T07:27:06.418Z,12.35
2023-02-17T07:29:36.649Z,17.42
2023-02-17T07:32:06.635Z,12.38
2023-02-17T07:34:36.696Z,15.20
2023-02-17T07:37:07.888Z,11.45
2023-02-17T07:39:40.134Z,14.35
2023-02-17T07:42:10.616Z,12.65
2023-02-17T07:44:42.894Z,15.50
2023-02-17T07:47:14.913Z,13.23
2023-02-17T07:49:44.807Z,13.38
2023-02-17T07:52:14.730Z,10.85
2023-02-17T07:54:46.274Z,13.70
2023-02-17T07:57:19.801Z,9.55
2023-02-17T07:59:50.438Z,11.85
2023-02-17T08:02:20.440Z,12.70
2023-02-17T08:04:50.282Z,10.82
2023-02-17T08:07:20.596Z,15.75
2023-02-17T08:10:11.051Z,14.68
2023-02-17T08:12:58.873Z,12.18
2023-02-17T08:15:29.081Z,14.60
2023-02-17T08:17:58.988Z,11.32
2023-02-17T08:20:39.056Z,4.68
2023-02-17T08:23:14.818Z,13.60
2023-02-17T08:25:48.414Z,12.05
2023-02-17T08:28:19.244Z,16.63
2023-02-17T08:30:49.086Z,14.43
2023-02-17T08:33:28.488Z,12.85
2023-02-17T08:35:59.538Z,10.50
2023-02-17T08:38:29.137Z,12.40
2023-02-17T08:41:00.807Z,14.07
2023-02-17T08:43:34.718Z,13.15
2023-02-17T08:46:06.479Z,13.13
2023-02-17T08:48:37.612Z,12.15
2023-02-17T08:51:11.002Z,11.38
2023-02-17T08:53:40.946Z,12.52
2023-02-17T08:56:19.659Z,12.60
2023-02-17T08:58:52.033Z,10.68
2023-02-17T09:01:24.877Z,10.73
2023-02-17T09:04:01.773Z,9.73
2023-02-17T09:06:45.208Z,6.32
2023-02-17T09:09:21.590Z,11.43
2023-02-17T09:14:34.495Z,6.35
2023-02-17T09:17:05.331Z,5.20
2023-02-17T09:19:42.695Z,8.65
2023-02-17T09:22:31.217Z,8.10
2023-02-17T09:25:04.932Z,9.00
2023-02-17T09:27:38.910Z,9.25
2023-02-17T09:30:14.051Z,10.52
2023-02-17T09:35:14.379Z,6.97
2023-02-17T09:37:43.902Z,6.90
2023-02-17T09:40:28.368Z,8.85
2023-02-17T09:43:02.690Z,6.20
2023-02-17T09:45:37.314Z,7.03
2023-02-17T09:48:10.693Z,7.57
2023-02-17T09:50:47.833Z,6.60
2023-02-17T09:53:27.259Z,4.85
2023-02-17T09:55:59.826Z,7.60
2023-02-17T09:58:36.522Z,9.07
2023-02-17T10:01:13.164Z,5.97
2023-02-17T10:03:45.663Z,5.85
2023-02-17T10:06:20.417Z,6.53
2023-02-17T10:08:54.739Z,4.80
2023-02-17T10:11:35.158Z,5.70
2023-02-17T10:14:24.014Z,4.63
2023-02-17T10:17:03.358Z,5.95
2023-02-17T10:19:39.467Z,5.47
2023-02-17T10:22:27.943Z,6.75
2023-02-17T10:24:58.968Z,4.05
2023-02-17T10:27:46.301Z,3.45
2023-02-17T10:30:53.306Z,6.80
2023-02-17T10:33:34.021Z,5.22
2023-02-17T10:36:22.232Z,4.03
2023-02-17T10:38:57.187Z,3.63
2023-02-17T10:41:34.093Z,5.25
2023-02-17T10:44:08.192Z,3.58
2023-02-17T10:46:44.542Z,4.80
2023-02-17T10:49:28.649Z,3.35
2023-02-17T10:52:05.896Z,5.55
2023-02-17T10:54:40.317Z,3.72
2023-02-17T10:57:15.142Z,4.97
2023-02-17T10:59:58.343Z,6.70
2023-02-17T11:02:39.355Z,4.00
2023-02-17T11:05:18.258Z,1.70
2023-02-17T11:07:48.860Z,4.47
2023-02-17T11:10:32.489Z,3.42
2023-02-17T11:15:52.241Z,3.55
2023-02-17T11:19:00.532Z,3.88
2023-02-17T11:24:30.972Z,1.85
2023-02-17T11:27:02.603Z,1.25
2023-02-17T11:29:34.950Z,1.52
2023-02-17T11:32:12.922Z,1.63
2023-02-17T11:35:01.571Z,1.48
2023-02-17T11:37:32.777Z,1.40
2023-02-17T11:40:03.068Z,2.40
2023-02-17T11:42:36.982Z,1.88
2023-02-17T11:45:27.774Z,3.30
2023-02-17T11:48:28.252Z,4.20
2023-02-17T11:51:07.690Z,1.65
2023-02-17T11:54:07.355Z,1.70
2023-02-17T11:56:41.315Z,1.63
2023-02-17T11:59:33.234Z,2.67
2023-02-17T12:02:23.346Z,3.50
2023-02-17T12:05:09.429Z,1.23
2023-02-17T12:08:05.253Z,1.67
2023-02-17T12:10:55.952Z,1.15
2023-02-17T12:13:40.364Z,5.93
2023-02-17T12:16:42.529Z,2.35
2023-02-17T12:19:39.983Z,2.00
2023-02-17T12:28:49.614Z,2.17
2023-02-17T12:31:43.456Z,4.28
2023-02-17T12:34:24.359Z,5.32
2023-02-17T12:36:58.594Z,3.30
2023-02-17T12:39:34.544Z,3.10
2023-02-17T12:42:12.651Z,1.83
2023-02-17T12:44:52.511Z,1.77
2023-02-17T12:47:37.786Z,1.63
2023-02-17T12:50:21.402Z,1.20
2023-02-17T12:53:02.170Z,1.50
2023-02-17T12:55:52.414Z,2.42
2023-02-17T12:58:28.159Z,1.80
2023-02-17T13:01:07.314Z,1.65
2023-02-17T13:03:40.377Z,1.40
2023-02-17T13:06:24.598Z,1.17
2023-02-17T13:08:59.762Z,1.70
2023-02-17T13:11:34.695Z,6.18
2023-02-17T13:14:14.509Z,4.40
2023-02-17T13:16:48.210Z,2.25
2023-02-17T13:19:20.488Z,2.38
2023-02-17T13:21:57.084Z,1.98
2023-02-17T13:24:38.851Z,1.30
2023-02-17T13:27:37.331Z,4.72
2023-02-17T13:30:31.137Z,2.85
2023-02-17T13:33:06.440Z,3.40
2023-02-17T13:35:40.061Z,1.77
2023-02-17T13:38:14.352Z,1.27
2023-02-17T13:40:49.099Z,1.77
2023-02-17T13:43:20.835Z,3.20
2023-02-17T13:46:03.451Z,6.07
2023-02-17T13:48:37.458Z,2.28
2023-02-17T13:51:28.041Z,1.15
2023-02-17T13:53:57.267Z,2.45
2023-02-17T13:56:28.888Z,2.47
2023-02-17T13:59:12.363Z,4.18
2023-02-17T14:01:46.966Z,1.23
2023-02-17T14:04:25.146Z,2.60
2023-02-17T14:07:07.187Z,2.03
2023-02-17T14:09:38.250Z,2.20
2023-02-17T14:12:20.733Z,1.83
2023-02-17T14:14:51.753Z,1.85
2023-02-17T14:17:33.176Z,2.15
2023-02-17T14:20:13.705Z,2.63
2023-02-17T14:22:53.262Z,2.58
2023-02-17T14:25:33.129Z,3.33
2023-02-17T14:28:36.353Z,3.08
2023-02-17T14:31:20.324Z,3.15
2023-02-17T14:33:59.449Z,3.05
2023-02-17T14:36:35.287Z,3.40
2023-02-17T14:39:06.453Z,1.85
2023-02-17T14:41:42.413Z,4.38
2023-02-17T14:44:12.721Z,0.55
2023-02-17T14:46:48.676Z,3.55
2023-02-17T14:49:20.238Z,3.28
2023-02-17T14:51:52.620Z,0.80
2023-02-17T14:54:26.858Z,2.50
2023-02-17T14:57:08.216Z,2.15
2023-02-17T14:59:37.413Z,1.70
2023-02-17T15:02:14.595Z,2.22
2023-02-17T15:04:55.510Z,3.55
2023-02-17T15:07:27.551Z,4.32
2023-02-17T15:10:05.502Z,2.65
2023-02-17T15:12:36.382Z,3.28
2023-02-17T15:15:07.985Z,1.65
2023-02-17T15:17:42.025Z,4.50
2023-02-17T15:20:14.406Z,1.90
2023-02-17T15:22:44.708Z,1.00
2023-02-17T15:25:22.717Z,2.80
2023-02-17T15:27:53.686Z,3.70
2023-02-17T15:30:28.418Z,3.17
2023-02-17T15:33:00.882Z,1.30
2023-02-17T15:35:31.676Z,3.17
2023-02-17T15:38:03.122Z,5.70
2023-02-17T15:40:34.490Z,2.95
2023-02-17T15:43:07.495Z,2.55
2023-02-17T15:45:40.565Z,1.52
2023-02-17T15:48:15.877Z,4.50
2023-02-17T15:53:19.198Z,5.07
2023-02-17T15:55:52.911Z,3.35
2023-02-17T16:01:35.009Z,1.60
2023-02-17T16:04:05.778Z,3.38
2023-02-17T16:06:45.561Z,7.65
2023-02-17T16:09:21.840Z,3.97
2023-02-17T16:11:56.195Z,6.07
2023-02-17T16:14:45.685Z,5.72
2023-02-17T16:17:20.549Z,5.38
2023-02-17T16:20:09.404Z,7.07
2023-02-17T16:22:47.738Z,7.80
2023-02-17T16:25:23.493Z,7.38
2023-02-17T16:27:58.917Z,6.15
2023-02-17T16:33:03.408Z,4.85
2023-02-17T16:35:38.656Z,5.85
2023-02-17T16:38:23.970Z,5.88
2023-02-17T16:44:00.864Z,8.35
2023-02-17T16:46:34.430Z,6.60
2023-02-17T16:49:08.925Z,8.65
2023-02-17T16:51:40.677Z,5.87
2023-02-17T16:54:13.610Z,8.63
2023-02-17T16:56:53.385Z,7.68
2023-02-17T16:59:32.626Z,8.23
2023-02-17T17:02:15.967Z,6.28
2023-02-17T17:04:50.637Z,5.18
2023-02-17T17:07:20.635Z,4.22
2023-02-17T17:10:15.457Z,11.20
2023-02-17T17:13:01.908Z,6.50
2023-02-17T17:15:48.105Z,7.60
2023-02-17T17:18:24.899Z,5.50
2023-02-17T17:21:18.876Z,7.78
2023-02-17T17:24:20.578Z,9.43
2023-02-17T17:27:17.527Z,6.10
2023-02-17T17:29:51.177Z,1.48
2023-02-17T17:32:21.648Z,5.30
2023-02-17T17:34:53.036Z,7.45
2023-02-17T17:37:23.368Z,6.47
2023-02-17T17:39:54.862Z,8.13
2023-02-17T17:42:31.293Z,6.97
2023-02-17T17:45:08.693Z,5.05
2023-02-17T17:47:48.515Z,7.25
2023-02-17T17:50:45.146Z,6.53
2023-02-17T17:53:19.416Z,8.52
2023-02-17T17:55:50.245Z,6.32
2023-02-17T17:58:27.400Z,5.78
2023-02-17T18:01:12.720Z,5.75
2023-02-17T18:03:51.551Z,7.72
2023-02-17T18:06:58.932Z,7.47
2023-02-17T18:09:56.782Z,8.07
2023-02-17T18:12:40.192Z,10.57
2023-02-17T18:15:20.972Z,6.05
2023-02-17T18:17:54.240Z,8.55
2023-02-17T18:20:36.584Z,7.75
2023-02-17T18:23:16.123Z,6.70
2023-02-17T18:25:50.434Z,8.05
2023-02-17T18:28:23.828Z,8.40
2023-02-17T18:30:59.859Z,10.48
2023-02-17T18:33:45.266Z,8.38
2023-02-17T18:36:21.144Z,7.63
2023-02-17T18:39:02.935Z,7.35
2023-02-17T18:42:15.757Z,8.13
2023-02-17T18:44:51.997Z,7.15
2023-02-17T18:51:18.043Z,7.72
2023-02-17T18:57:02.598Z,6.63
2023-02-17T18:59:34.665Z,9.68
2023-02-17T19:02:06.859Z,7.20
2023-02-17T19:04:43.324Z,6.40
2023-02-17T19:07:19.374Z,9.55
2023-02-17T19:09:55.260Z,8.05
2023-02-17T19:13:06.553Z,9.23
2023-02-17T19:15:40.338Z,9.80
2023-02-17T19:18:45.193Z,7.38
2023-02-17T19:22:00.239Z,7.60
2023-02-17T19:24:36.695Z,5.65
2023-02-17T19:27:18.398Z,7.75
2023-02-17T19:30:06.669Z,7.88
2023-02-17T19:32:40.563Z,10.45
2023-02-17T19:35:15.463Z,7.50
2023-02-17T19:38:23.254Z,4.65
2023-02-17T19:41:19.586Z,9.23
2023-02-17T19:44:21.835Z,7.75
2023-02-17T19:47:02.276Z,7.28
2023-02-17T19:49:40.326Z,7.68
2023-02-17T19:52:12.979Z,6.22
2023-02-17T19:54:45.250Z,8.13
2023-02-17T19:57:19.146Z,9.30
2023-02-17T19:59:50.342Z,6.63
2023-02-17T20:02:19.670Z,8.65
2023-02-17T20:04:49.276Z,8.30
2023-02-17T20:07:18.852Z,7.85
2023-02-17T20:09:50.118Z,7.82
2023-02-17T20:12:29.075Z,8.65
2023-02-17T20:15:00.006Z,12.05
2023-02-17T20:17:32.071Z,8.18
2023-02-17T20:20:02.500Z,9.48
2023-02-17T20:22:39.959Z,9.40
2023-02-17T20:25:13.887Z,13.65
2023-02-17T20:27:44.125Z,10.07
2023-02-17T20:30:17.860Z,10.45
2023-02-17T20:32:51.931Z,10.20
2023-02-17T20:35:25.943Z,11.32
2023-02-17T20:37:55.379Z,10.65
2023-02-17T20:40:45.058Z,13.27
2023-02-17T20:43:18.933Z,10.75
2023-02-17T20:45:52.274Z,10.48
2023-02-17T20:48:22.528Z,10.55
2023-02-17T20:50:52.886Z,10.65
2023-02-17T20:53:24.326Z,11.52
2023-02-17T20:56:06.651Z,12.00
2023-02-17T20:58:38.490Z,11.75
2023-02-17T21:01:16.939Z,10.40
2023-02-17T21:03:49.481Z,10.85
2023-02-17T21:06:26.061Z,12.63
2023-02-17T21:09:09.228Z,10.80
2023-02-17T21:11:41.921Z,12.02
2023-02-17T21:14:14.751Z,13.43
2023-02-17T21:16:56.906Z,13.75
2023-02-17T21:19:31.734Z,11.90
2023-02-17T21:22:12.644Z,10.75
2023-02-17T21:24:52.544Z,12.70
2023-02-17T21:27:28.797Z,13.90
2023-02-17T21:30:13.006Z,10.88
2023-02-17T21:32:54.228Z,13.90
2023-02-17T21:35:25.471Z,9.00
2023-02-17T21:38:00.422Z,11.00
2023-02-17T21:40:39.359Z,15.15
2023-02-17T21:43:29.746Z,13.57
2023-02-17T21:46:01.003Z,14.00
2023-02-17T21:48:46.221Z,13.63
2023-02-17T21:51:42.415Z,11.82
2023-02-17T21:54:28.868Z,12.23
2023-02-17T21:57:22.293Z,11.45
2023-02-17T21:59:57.668Z,11.90
2023-02-17T22:03:05.802Z,12.68
2023-02-17T22:05:55.185Z,10.07
2023-02-17T22:08:51.755Z,11.52
2023-02-17T22:11:50.601Z,10.90
2023-02-17T22:14:30.368Z,15.25
2023-02-17T22:17:27.524Z,11.98
2023-02-17T22:20:24.322Z,13.02
2023-02-17T22:23:25.539Z,14.18
2023-02-17T22:26:02.426Z,13.60
2023-02-17T22:28:50.262Z,13.02
2023-02-17T22:31:33.169Z,13.90
2023-02-17T22:34:17.435Z,14.20
2023-02-17T22:36:50.619Z,11.15
2023-02-17T22:39:27.204Z,15.88
2023-02-17T22:42:06.279Z,17.92
2023-02-17T22:44:52.106Z,15.20
2023-02-17T22:47:24.203Z,17.95
2023-02-17T22:50:06.470Z,14.90
2023-02-17T22:52:39.357Z,19.42
2023-02-17T22:55:10.150Z,19.35
2023-02-17T22:58:08.848Z,20.38
2023-02-17T23:00:48.413Z,19.10
2023-02-17T23:03:27.336Z,18.67
2023-02-17T23:06:01.266Z,20.05
2023-02-17T23:08:29.828Z,21.40
2023-02-17T23:10:58.418Z,19.67
2023-02-17T23:13:27.295Z,19.35
2023-02-17T23:15:55.566Z,23.92
2023-02-17T23:18:24.369Z,20.15
2023-02-17T23:20:53.269Z,21.02
2023-02-17T23:23:24.090Z,21.05
2023-02-17T23:25:56.649Z,27.52
2023-02-17T23:28:27.289Z,22.38
2023-02-17T23:30:55.619Z,27.67
2023-02-17T23:33:25.029Z,23.98
2023-02-17T23:35:53.452Z,16.73
2023-02-17T23:38:23.844Z,11.82
2023-02-17T23:40:53.275Z,25.35
2023-02-17T23:43:22.688Z,23.13
2023-02-17T23:45:51.784Z,24.35
2023-02-17T23:48:20.279Z,25.02
2023-02-17T23:50:57.264Z,29.52
2023-02-17T23:53:28.033Z,30.70
2023-02-17T23:56:04.146Z,26.77
2023-02-17T23:58:33.077Z,24.00
